Time;durP1;ratioP1;P1;durP2;ratioP2;P2;SDS_P1;SDS_P2;PMS_P1;PMS_P2;Temp;Humidity;BMP_temperature;BMP_pressure;BME280_temperature;BME280_humidity;BME280_pressure;Samples;Min_cycle;Max_cycle;Signal;HPM_P1;HPM_P2
2023/07/31 00:00:06;;;;;;;43.90;13.00;;;;;;;28.25;47.52;99934.48;108437;1270;21987;-61
2023/07/31 00:02:32;;;;;;;46.60;16.30;;;;;;;28.27;47.44;99935.58;108432;1277;22269;-63
2023/07/31 00:04:58;;;;;;;70.40;22.00;;;;;;;28.28;47.46;99931.85;108465;1275;21989;-60
2023/07/31 00:07:23;;;;;;;69.80;23.60;;;;;;;28.30;47.55;99932.42;108390;1276;21983;-60
2023/07/31 00:09:49;;;;;;;60.40;19.30;;;;;;;28.30;47.40;99930.77;108384;1282;21987;-68
2023/07/31 00:12:14;;;;;;;31.40;11.80;;;;;;;28.29;47.43;99932.67;108341;1282;22457;-68
2023/07/31 00:14:40;;;;;;;15.30;6.00;;;;;;;28.28;47.34;99934.73;108366;1277;21983;-68
2023/07/31 00:17:05;;;;;;;8.70;3.60;;;;;;;28.24;47.21;99937.47;108341;1280;21988;-60
2023/07/31 00:19:31;;;;;;;7.50;2.90;;;;;;;28.17;47.12;99938.98;108363;1276;21986;-60
2023/07/31 00:21:56;;;;;;;6.70;2.50;;;;;;;28.11;47.06;99942.62;108353;1276;21979;-67
2023/07/31 00:24:22;;;;;;;10.40;3.80;;;;;;;28.09;47.33;99946.80;108373;1282;21994;-60
2023/07/31 00:26:48;;;;;;;6.50;2.60;;;;;;;28.08;47.39;99947.92;108368;1282;21986;-68
2023/07/31 00:29:13;;;;;;;7.30;3.00;;;;;;;28.07;47.37;99947.07;108353;1277;21981;-60
2023/07/31 00:31:39;;;;;;;5.90;2.30;;;;;;;28.07;47.61;99949.13;108330;1282;21993;-68
2023/07/31 00:34:04;;;;;;;8.30;2.50;;;;;;;28.04;47.56;99946.79;108375;1276;22156;-61
2023/07/31 00:36:30;;;;;;;5.90;2.20;;;;;;;28.02;47.40;99941.05;108368;1282;22008;-61
2023/07/31 00:38:55;;;;;;;6.10;2.50;;;;;;;28.05;47.47;99939.52;108367;1282;21996;-69
2023/07/31 00:41:21;;;;;;;4.80;2.20;;;;;;;28.10;47.48;99939.65;108358;1273;22020;-68
2023/07/31 00:43:46;;;;;;;6.70;2.30;;;;;;;28.15;47.78;99939.36;108371;1282;21989;-60
2023/07/31 00:46:12;;;;;;;3.80;2.20;;;;;;;28.16;47.63;99940.02;108363;1276;21992;-58
2023/07/31 00:48:38;;;;;;;3.80;1.80;;;;;;;28.13;47.88;99944.98;108072;1283;21984;-67
2023/07/31 00:51:03;;;;;;;4.50;2.00;;;;;;;28.08;47.70;99947.89;108350;1282;22018;-68
2023/07/31 00:53:29;;;;;;;3.60;2.00;;;;;;;28.00;48.07;99951.55;108335;1281;23542;-59
2023/07/31 00:55:54;;;;;;;3.40;1.80;;;;;;;27.89;48.09;99953.05;108334;1276;21985;-60
2023/07/31 00:58:20;;;;;;;3.20;1.80;;;;;;;27.84;48.37;99951.71;108495;1282;21993;-69
2023/07/31 01:00:46;;;;;;;3.60;2.00;;;;;;;27.78;48.55;99951.73;108424;1281;21973;-68
2023/07/31 01:03:11;;;;;;;3.90;2.10;;;;;;;27.72;48.59;99950.29;108428;1280;21980;-68
2023/07/31 01:06:13;;;;;;;2.70;1.50;;;;;;;27.69;48.64;99950.95;108399;1274;21998;-68
2023/07/31 01:08:52;;;;;;;3.40;1.80;;;;;;;27.64;49.26;99946.55;108175;1282;21983;-59
2023/07/31 01:11:22;;;;;;;2.90;1.70;;;;;;;27.56;49.52;99945.48;108413;1282;21986;-59
2023/07/31 01:13:47;;;;;;;3.40;1.60;;;;;;;27.49;49.05;99946.08;108443;1280;21983;-59
2023/07/31 01:16:13;;;;;;;3.20;1.80;;;;;;;27.48;49.04;99942.58;108386;1281;21983;-67
2023/07/31 01:18:38;;;;;;;3.60;1.60;;;;;;;27.46;49.44;99940.69;108347;1276;22021;-59
2023/07/31 01:21:28;;;;;;;3.20;2.00;;;;;;;27.42;51.01;99937.43;108150;1282;21988;-60
2023/07/31 01:24:13;;;;;;;5.70;1.70;;;;;;;27.32;51.50;99936.94;108356;1270;21992;-68
2023/07/31 01:26:39;;;;;;;2.50;1.50;;;;;;;27.25;50.51;99933.59;108396;1282;22024;-59
2023/07/31 01:29:46;;;;;;;2.80;1.40;;;;;;;27.26;50.65;99928.70;108224;1277;21974;-60
2023/07/31 01:32:12;;;;;;;3.60;1.70;;;;;;;27.28;51.16;99925.58;108381;1282;21999;-68
2023/07/31 01:34:37;;;;;;;4.40;1.60;;;;;;;27.28;51.02;99928.95;108103;1279;23145;-60
2023/07/31 01:37:03;;;;;;;3.10;1.60;;;;;;;27.27;51.01;99926.59;108102;1280;21999;-67
2023/07/31 01:39:29;;;;;;;3.80;1.30;;;;;;;27.25;51.31;99919.34;108338;1281;21987;-60
2023/07/31 01:41:55;;;;;;;5.80;1.70;;;;;;;27.24;51.88;99925.08;108307;1277;21991;-68
2023/07/31 01:44:20;;;;;;;3.80;1.90;;;;;;;27.19;52.40;99924.71;108356;1282;21987;-60
2023/07/31 01:46:46;;;;;;;3.80;1.60;;;;;;;27.16;52.30;99926.08;108403;1282;24242;-59
2023/07/31 01:49:11;;;;;;;4.00;1.80;;;;;;;27.13;52.48;99924.38;108337;1277;21994;-59
2023/07/31 01:51:37;;;;;;;5.50;1.80;;;;;;;27.11;52.63;99922.61;108350;1277;21984;-60
2023/07/31 01:54:03;;;;;;;4.10;1.50;;;;;;;27.11;52.48;99923.52;108391;1283;23715;-69
2023/07/31 01:56:28;;;;;;;3.60;1.40;;;;;;;27.14;52.24;99924.11;108348;1273;21996;-62
2023/07/31 01:58:54;;;;;;;4.00;1.80;;;;;;;27.17;52.48;99924.38;108428;1282;21987;-60
2023/07/31 02:01:20;;;;;;;5.90;1.80;;;;;;;27.15;52.59;99924.21;108387;1277;22024;-60
2023/07/31 02:03:45;;;;;;;5.50;2.00;;;;;;;27.12;52.65;99923.61;108392;1282;22001;-69
2023/07/31 02:06:11;;;;;;;3.90;1.70;;;;;;;27.11;53.00;99917.52;108401;1276;21983;-69
2023/07/31 02:08:36;;;;;;;2.90;1.50;;;;;;;27.13;52.86;99912.55;108460;1277;21990;-69
2023/07/31 02:11:02;;;;;;;5.20;2.10;;;;;;;27.16;52.97;99912.09;108406;1281;22193;-69
2023/07/31 02:13:27;;;;;;;4.50;1.60;;;;;;;27.16;52.93;99911.30;108408;1274;21990;-60
2023/07/31 02:15:53;;;;;;;3.20;1.90;;;;;;;27.15;53.28;99908.16;108307;1281;21983;-59
2023/07/31 02:18:19;;;;;;;4.70;2.30;;;;;;;27.11;53.59;99913.39;108369;1280;21993;-60
2023/07/31 02:20:49;;;;;;;4.80;1.80;;;;;;;27.05;53.92;99915.75;108412;1275;22038;-69
2023/07/31 02:23:15;;;;;;;4.20;2.00;;;;;;;26.98;53.58;99913.44;108462;1281;21970;-68
2023/07/31 02:25:40;;;;;;;6.80;2.20;;;;;;;26.97;53.73;99914.11;108442;1281;21983;-59
2023/07/31 02:28:06;;;;;;;3.30;1.90;;;;;;;26.98;53.89;99914.20;108407;1277;21982;-60
2023/07/31 02:30:31;;;;;;;5.40;1.80;;;;;;;26.98;53.86;99914.88;108437;1281;21984;-60
2023/07/31 02:32:57;;;;;;;2.80;1.60;;;;;;;26.97;53.81;99918.95;108420;1269;21988;-59
2023/07/31 02:35:22;;;;;;;4.40;1.70;;;;;;;26.94;54.03;99916.33;108437;1280;22008;-67
2023/07/31 02:37:48;;;;;;;3.60;1.90;;;;;;;26.94;54.00;99914.38;108412;1280;21996;-59
2023/07/31 02:40:14;;;;;;;4.90;2.00;;;;;;;26.95;54.17;99910.86;108421;1277;22040;-59
2023/07/31 02:42:39;;;;;;;4.00;2.40;;;;;;;26.91;54.30;99904.59;108280;1281;21989;-59
2023/07/31 02:45:06;;;;;;;3.20;1.70;;;;;;;26.83;54.75;99905.78;108418;1281;21988;-68
2023/07/31 02:47:31;;;;;;;5.10;2.20;;;;;;;26.74;54.74;99902.91;108480;1277;22002;-59
2023/07/31 02:49:57;;;;;;;4.90;2.40;;;;;;;26.68;54.92;99901.88;108439;1277;21972;-61
2023/07/31 02:52:23;;;;;;;4.70;1.80;;;;;;;26.63;54.93;99901.42;108409;1277;21984;-69
2023/07/31 02:54:48;;;;;;;7.10;1.90;;;;;;;26.60;55.17;99901.63;108384;1277;22085;-60
2023/07/31 02:57:14;;;;;;;4.10;1.90;;;;;;;26.59;55.27;99900.66;108459;1277;22144;-59
2023/07/31 02:59:40;;;;;;;3.70;1.60;;;;;;;26.60;55.37;99905.09;108409;1281;21988;-60
2023/07/31 03:02:05;;;;;;;5.30;1.70;;;;;;;26.62;55.56;99909.05;108475;1281;21987;-60
2023/07/31 03:04:31;;;;;;;5.20;1.70;;;;;;;26.64;55.74;99909.39;108417;1279;21985;-59
2023/07/31 03:06:56;;;;;;;4.60;1.60;;;;;;;26.63;55.79;99911.10;108467;1273;21993;-68
2023/07/31 03:09:22;;;;;;;6.20;2.20;;;;;;;26.61;55.87;99910.92;108416;1277;21981;-59
2023/07/31 03:11:47;;;;;;;3.50;1.60;;;;;;;26.59;56.07;99912.19;108355;1276;21987;-69
2023/07/31 03:14:13;;;;;;;5.70;1.80;;;;;;;26.57;56.27;99913.03;108379;1281;21987;-58
2023/07/31 03:16:39;;;;;;;5.80;1.90;;;;;;;26.58;56.36;99915.30;108374;1280;22087;-58
2023/07/31 03:19:04;;;;;;;8.30;2.00;;;;;;;26.57;56.49;99914.52;108409;1281;22150;-59
2023/07/31 03:21:30;;;;;;;7.10;2.10;;;;;;;26.56;56.70;99914.41;108431;1280;21995;-70
2023/07/31 03:23:55;;;;;;;7.50;2.10;;;;;;;26.56;57.00;99915.13;108537;1277;21985;-60
2023/07/31 03:26:21;;;;;;;8.50;2.00;;;;;;;26.54;57.47;99923.02;108467;1277;21980;-64
2023/07/31 03:28:47;;;;;;;5.60;2.50;;;;;;;26.52;57.41;99920.48;108318;1281;21985;-60
2023/07/31 03:31:12;;;;;;;4.20;2.60;;;;;;;26.52;57.68;99917.29;108434;1270;21989;-59
2023/07/31 03:33:40;;;;;;;3.70;2.10;;;;;;;26.52;57.88;99916.03;108427;1276;21991;-70
2023/07/31 03:36:07;;;;;;;3.10;2.00;;;;;;;26.51;57.89;99913.02;108447;1280;22000;-68
2023/07/31 03:38:34;;;;;;;3.70;2.50;;;;;;;26.51;58.51;99910.74;108315;1273;21983;-69
2023/07/31 03:40:59;;;;;;;6.80;2.60;;;;;;;26.49;58.54;99906.58;108437;1281;21995;-60
2023/07/31 03:43:25;;;;;;;7.50;2.30;;;;;;;26.51;59.64;99904.98;108464;1282;22150;-61
2023/07/31 03:45:50;;;;;;;5.20;2.10;;;;;;;26.51;60.49;99907.98;108432;1281;22021;-69
2023/07/31 03:48:16;;;;;;;2.90;1.70;;;;;;;26.51;60.43;99906.88;108336;1277;22015;-59
2023/07/31 03:50:42;;;;;;;7.20;2.40;;;;;;;26.53;61.83;99911.77;108399;1274;21983;-60
2023/07/31 03:53:07;;;;;;;4.70;2.30;;;;;;;26.53;62.06;99909.08;108446;1281;21997;-60
2023/07/31 03:55:33;;;;;;;7.40;2.20;;;;;;;26.54;62.64;99909.94;108510;1281;21986;-59
2023/07/31 03:58:00;;;;;;;3.50;1.90;;;;;;;26.58;61.48;99907.38;108425;1282;21994;-60
2023/07/31 04:00:27;;;;;;;4.70;2.10;;;;;;;26.66;61.36;99905.83;108492;1281;22018;-68
2023/07/31 04:02:52;;;;;;;6.90;2.20;;;;;;;26.74;61.35;99904.39;108476;1276;21992;-60
2023/07/31 04:05:18;;;;;;;7.10;2.60;;;;;;;26.81;62.29;99905.80;108384;1274;21969;-59
2023/07/31 04:07:43;;;;;;;5.00;2.20;;;;;;;26.88;62.52;99905.41;108365;1282;21997;-68
2023/07/31 04:10:09;;;;;;;4.20;2.00;;;;;;;26.94;62.29;99909.73;108398;1277;22034;-69
2023/07/31 04:12:35;;;;;;;5.10;2.00;;;;;;;27.00;62.20;99914.00;108371;1276;21988;-60
2023/07/31 04:15:00;;;;;;;5.00;1.60;;;;;;;27.07;62.56;99913.24;108344;1277;21988;-61
2023/07/31 04:17:26;;;;;;;4.90;2.00;;;;;;;27.12;63.51;99913.11;108370;1276;21988;-60
2023/07/31 04:19:52;;;;;;;4.90;2.00;;;;;;;27.18;63.03;99909.17;108377;1276;21983;-68
2023/07/31 04:22:17;;;;;;;5.80;2.00;;;;;;;27.25;64.79;99909.95;108371;1282;22458;-59
2023/07/31 04:24:43;;;;;;;5.90;2.20;;;;;;;27.34;63.63;99910.30;108394;1276;21993;-68
2023/07/31 04:27:08;;;;;;;2.50;1.60;;;;;;;27.39;65.05;99909.42;108377;1277;25095;-59
2023/07/31 04:29:34;;;;;;;3.50;1.80;;;;;;;27.44;64.39;99909.16;108381;1282;22003;-58
2023/07/31 04:31:59;;;;;;;7.60;2.10;;;;;;;27.52;64.02;99912.15;108383;1276;21999;-59
2023/07/31 04:34:25;;;;;;;5.00;1.90;;;;;;;27.57;65.19;99916.34;108377;1282;21983;-67
2023/07/31 04:36:50;;;;;;;2.60;1.50;;;;;;;27.63;65.30;99922.09;108398;1276;21991;-60
2023/07/31 04:39:16;;;;;;;2.60;1.70;;;;;;;27.71;64.96;99921.33;108366;1282;21989;-59
2023/07/31 04:41:41;;;;;;;2.60;1.60;;;;;;;27.80;64.84;99920.41;108374;1276;21996;-67
2023/07/31 04:44:07;;;;;;;5.80;1.50;;;;;;;27.88;64.27;99922.02;108363;1273;22038;-59
2023/07/31 04:46:33;;;;;;;6.70;1.50;;;;;;;27.95;64.62;99922.26;108453;1277;22076;-68
2023/07/31 04:48:58;;;;;;;2.80;1.70;;;;;;;28.03;64.02;99922.60;108464;1274;22001;-60
2023/07/31 04:51:25;;;;;;;3.40;1.70;;;;;;;28.14;64.27;99925.38;108469;1281;21998;-68
2023/07/31 04:53:50;;;;;;;2.90;1.70;;;;;;;28.24;65.37;99928.41;108417;1282;23609;-59
2023/07/31 04:56:16;;;;;;;3.80;1.70;;;;;;;28.33;64.52;99925.61;108449;1280;21995;-59
2023/07/31 04:58:42;;;;;;;4.30;1.50;;;;;;;28.42;64.47;99924.23;108410;1276;21998;-59
2023/07/31 05:01:07;;;;;;;3.80;1.70;;;;;;;28.49;63.84;99924.59;108398;1281;22039;-69
2023/07/31 05:03:33;;;;;;;4.70;1.70;;;;;;;28.55;64.02;99926.97;108412;1281;21980;-68
2023/07/31 05:05:58;;;;;;;3.70;1.80;;;;;;;28.62;64.80;99927.76;108337;1281;22009;-68
2023/07/31 05:08:24;;;;;;;3.50;1.50;;;;;;;28.71;64.21;99933.59;108366;1281;24320;-62
2023/07/31 05:10:49;;;;;;;3.80;1.40;;;;;;;28.79;63.89;99931.00;108380;1281;21984;-68
2023/07/31 05:13:15;;;;;;;3.40;1.70;;;;;;;28.90;63.55;99933.25;108399;1281;21993;-68
2023/07/31 05:15:41;;;;;;;4.60;2.00;;;;;;;28.97;64.16;99928.89;108360;1281;21983;-60
2023/07/31 05:18:07;;;;;;;3.40;1.60;;;;;;;29.06;64.87;99930.74;108388;1280;21984;-69
2023/07/31 05:20:32;;;;;;;4.90;1.50;;;;;;;29.18;63.87;99934.16;108398;1276;21989;-59
2023/07/31 05:22:58;;;;;;;3.40;1.60;;;;;;;29.29;63.66;99941.21;108346;1281;21993;-59
2023/07/31 05:25:23;;;;;;;5.20;1.80;;;;;;;29.38;63.82;99942.35;108399;1281;21977;-67
2023/07/31 05:27:49;;;;;;;5.90;1.90;;;;;;;29.49;63.06;99945.36;108430;1281;21986;-67
2023/07/31 05:30:15;;;;;;;3.10;1.70;;;;;;;29.65;62.38;99947.11;108405;1281;21981;-60
2023/07/31 05:32:40;;;;;;;3.90;1.20;;;;;;;29.77;61.30;99945.91;108580;1277;21986;-60
2023/07/31 05:35:06;;;;;;;9.90;1.90;;;;;;;29.89;60.68;99947.58;108464;1281;23189;-67
2023/07/31 05:37:32;;;;;;;2.60;1.60;;;;;;;30.02;61.21;99948.30;108684;1281;21998;-60
2023/07/31 05:39:58;;;;;;;3.80;1.50;;;;;;;30.15;60.18;99950.78;110451;1273;21887;-69
2023/07/31 05:42:23;;;;;;;2.50;1.50;;;;;;;30.27;58.81;99946.88;110461;1281;22228;-69
2023/07/31 05:44:49;;;;;;;2.40;1.40;;;;;;;30.39;58.62;99947.48;110444;1270;21896;-61
2023/07/31 05:47:14;;;;;;;2.40;1.50;;;;;;;30.53;58.81;99945.30;110466;1281;21888;-61
2023/07/31 05:49:40;;;;;;;3.20;1.50;;;;;;;30.72;58.56;99937.41;108805;1271;22734;-70
2023/07/31 05:52:06;;;;;;;4.90;1.50;;;;;;;30.86;58.07;99942.59;108426;1278;22036;-60
2023/07/31 05:54:32;;;;;;;3.00;1.50;;;;;;;31.01;57.97;99945.89;108512;1281;22475;-69
2023/07/31 05:56:57;;;;;;;3.20;1.40;;;;;;;31.16;56.41;99946.15;108423;1276;21987;-69
2023/07/31 05:59:23;;;;;;;3.60;1.90;;;;;;;31.27;55.04;99945.79;108368;1282;21994;-59
2023/07/31 06:01:49;;;;;;;3.10;1.40;;;;;;;31.35;55.21;99947.95;108376;1282;21991;-60
2023/07/31 06:04:15;;;;;;;6.20;3.40;;;;;;;31.45;54.88;99945.80;108383;1281;22033;-69
2023/07/31 06:06:40;;;;;;;3.60;2.20;;;;;;;31.58;54.66;99943.52;108407;1275;21982;-70
2023/07/31 06:09:06;;;;;;;3.10;1.80;;;;;;;31.72;53.76;99940.75;108443;1277;21978;-68
2023/07/31 06:11:33;;;;;;;10.00;2.10;;;;;;;31.85;53.41;99940.64;108435;1281;22013;-71
2023/07/31 06:13:59;;;;;;;4.30;2.30;;;;;;;32.00;53.23;99943.58;108427;1277;21991;-60
2023/07/31 06:16:25;;;;;;;2.90;1.70;;;;;;;32.11;52.00;99946.73;108441;1277;21992;-69
2023/07/31 06:18:50;;;;;;;6.80;1.50;;;;;;;32.20;51.66;99948.98;108452;1282;21993;-69
2023/07/31 06:21:16;;;;;;;2.30;1.30;;;;;;;32.37;51.55;99944.02;108447;1280;22451;-60
2023/07/31 06:23:42;;;;;;;3.90;2.10;;;;;;;32.57;50.87;99944.94;108119;1279;21956;-61
2023/07/31 06:26:08;;;;;;;3.30;1.40;;;;;;;32.76;50.27;99947.31;108494;1277;21988;-70
2023/07/31 06:28:34;;;;;;;3.20;1.30;;;;;;;32.91;49.02;99947.67;108411;1277;21955;-60
2023/07/31 06:31:00;;;;;;;2.00;1.30;;;;;;;32.94;47.43;99941.15;108421;1276;22023;-60
2023/07/31 06:33:26;;;;;;;3.50;1.40;;;;;;;33.05;48.40;99942.45;108469;1272;23183;-61
2023/07/31 06:35:52;;;;;;;3.80;1.70;;;;;;;33.20;48.08;99941.08;108440;1282;21988;-71
2023/07/31 06:38:25;;;;;;;2.30;1.20;;;;;;;33.36;47.37;99940.29;108477;1274;21995;-71
2023/07/31 06:40:50;;;;;;;1.70;1.10;;;;;;;33.52;46.64;99942.34;108387;1281;21974;-70
2023/07/31 06:43:16;;;;;;;4.20;1.40;;;;;;;33.58;45.60;99942.73;108450;1281;21984;-71
2023/07/31 06:45:41;;;;;;;3.40;1.30;;;;;;;33.66;46.08;99940.33;108395;1282;22210;-71
2023/07/31 06:48:07;;;;;;;3.20;1.30;;;;;;;33.78;46.32;99943.31;108362;1276;21984;-71
2023/07/31 06:50:32;;;;;;;4.40;1.30;;;;;;;33.90;45.10;99942.26;108436;1276;21995;-69
2023/07/31 06:52:58;;;;;;;2.40;1.20;;;;;;;33.99;44.02;99944.14;108451;1281;21998;-61
2023/07/31 06:55:26;;;;;;;2.20;1.20;;;;;;;34.11;44.33;99938.34;108404;1277;22564;-61
2023/07/31 06:57:52;;;;;;;3.40;1.10;;;;;;;34.32;44.24;99937.51;108432;1277;21993;-71
2023/07/31 07:00:19;;;;;;;2.80;1.10;;;;;;;34.48;43.15;99941.39;108457;1280;24316;-71
2023/07/31 07:02:44;;;;;;;2.40;1.60;;;;;;;34.67;42.86;99939.33;108342;1277;22170;-70
2023/07/31 07:05:10;;;;;;;2.10;1.20;;;;;;;34.82;41.64;99935.30;108378;1277;21983;-70
2023/07/31 07:07:36;;;;;;;2.90;1.30;;;;;;;34.95;41.63;99935.56;108362;1281;23570;-61
2023/07/31 07:10:03;;;;;;;3.80;1.30;;;;;;;35.13;41.08;99935.42;108395;1282;21989;-62
2023/07/31 07:12:29;;;;;;;3.80;1.00;;;;;;;35.27;38.59;99938.41;108463;1277;21998;-71
2023/07/31 07:14:55;;;;;;;3.60;1.30;;;;;;;35.31;39.11;99934.84;108422;1280;21982;-70
2023/07/31 07:17:21;;;;;;;3.00;1.10;;;;;;;35.43;40.08;99931.27;108460;1279;21979;-71
2023/07/31 07:19:47;;;;;;;2.60;1.40;;;;;;;35.70;39.34;99935.05;108494;1278;21983;-70
2023/07/31 07:22:13;;;;;;;2.80;1.10;;;;;;;35.91;38.51;99931.92;108408;1280;22049;-62
2023/07/31 07:24:38;;;;;;;2.40;1.30;;;;;;;35.98;38.66;99930.04;108384;1274;21987;-70
2023/07/31 07:27:05;;;;;;;3.80;1.50;;;;;;;36.05;37.92;99933.05;108353;1282;22179;-70
2023/07/31 07:29:30;;;;;;;3.30;1.60;;;;;;;36.09;37.81;99927.30;108397;1280;21977;-62
2023/07/31 07:31:56;;;;;;;4.70;1.30;;;;;;;36.11;37.63;99932.89;108513;1281;21986;-62
2023/07/31 07:34:28;;;;;;;1.60;1.00;;;;;;;36.14;37.98;99935.05;108489;1274;21980;-72
2023/07/31 07:36:54;;;;;;;2.90;1.10;;;;;;;36.23;37.72;99937.10;108311;1282;22459;-70
2023/07/31 07:39:20;;;;;;;2.30;1.30;;;;;;;36.36;37.47;99937.91;108397;1280;21994;-71
2023/07/31 07:41:46;;;;;;;2.40;1.40;;;;;;;36.43;37.75;99934.77;108268;1281;23647;-71
2023/07/31 07:44:13;;;;;;;1.80;1.00;;;;;;;36.64;37.93;99933.13;108624;1273;21996;-63
2023/07/31 07:46:38;;;;;;;2.80;1.20;;;;;;;36.88;37.72;99932.20;108683;1281;21984;-70
2023/07/31 07:49:04;;;;;;;4.30;1.40;;;;;;;36.97;36.91;99930.62;108560;1281;21987;-69
2023/07/31 07:51:31;;;;;;;5.00;1.30;;;;;;;36.99;37.13;99933.17;108390;1282;22449;-71
2023/07/31 07:53:57;;;;;;;2.90;1.40;;;;;;;36.97;36.39;99932.23;108484;1281;22456;-61
2023/07/31 07:56:25;;;;;;;2.60;1.30;;;;;;;36.97;36.36;99935.70;108474;1281;21988;-71
2023/07/31 07:58:50;;;;;;;2.20;1.20;;;;;;;36.98;36.64;99936.48;108657;1278;22004;-62
2023/07/31 08:01:16;;;;;;;5.10;1.30;;;;;;;37.02;36.73;99931.66;108458;1281;23715;-71
2023/07/31 08:03:42;;;;;;;2.10;1.30;;;;;;;37.13;36.66;99935.13;108598;1273;21993;-70
2023/07/31 08:06:09;;;;;;;2.50;1.50;;;;;;;37.21;35.44;99934.02;108574;1281;21968;-70
2023/07/31 08:08:35;;;;;;;2.60;1.20;;;;;;;37.22;35.29;99937.48;108581;1273;22096;-70
2023/07/31 08:11:01;;;;;;;4.20;1.20;;;;;;;37.26;35.44;99934.75;108669;1277;21992;-62
2023/07/31 08:13:27;;;;;;;4.00;1.30;;;;;;;37.41;35.47;99935.52;108247;1282;24950;-61
2023/07/31 08:15:52;;;;;;;3.40;1.20;;;;;;;37.65;35.55;99931.17;108633;1277;21987;-62
2023/07/31 08:18:18;;;;;;;3.10;1.30;;;;;;;37.82;35.26;99936.27;108495;1271;21984;-61
2023/07/31 08:20:44;;;;;;;2.50;1.30;;;;;;;37.79;34.90;99934.23;108605;1271;22074;-61
2023/07/31 08:23:12;;;;;;;3.20;1.30;;;;;;;37.93;35.30;99933.30;108420;1281;21996;-60
2023/07/31 08:25:38;;;;;;;1.70;1.00;;;;;;;38.07;34.08;99932.05;108520;1281;21995;-61
2023/07/31 08:28:04;;;;;;;3.20;1.30;;;;;;;38.05;34.26;99936.48;108648;1280;22050;-64
2023/07/31 08:30:30;;;;;;;3.10;1.30;;;;;;;38.04;34.11;99937.23;108589;1280;24874;-65
2023/07/31 08:32:56;;;;;;;2.50;1.50;;;;;;;38.09;34.25;99935.27;108554;1281;22017;-71
2023/07/31 08:35:21;;;;;;;4.40;1.20;;;;;;;38.15;33.92;99938.94;108583;1280;22446;-71
2023/07/31 08:37:47;;;;;;;1.90;1.30;;;;;;;38.18;32.96;99937.95;108629;1277;21953;-71
2023/07/31 08:40:13;;;;;;;3.30;1.30;;;;;;;38.25;33.37;99937.90;108498;1277;21986;-62
2023/07/31 08:42:49;;;;;;;2.80;1.20;;;;;;;38.34;32.69;99938.08;109404;1281;21989;-68
2023/07/31 08:45:19;;;;;;;2.40;1.30;;;;;;;38.51;33.49;99934.45;108518;1277;23339;-61
2023/07/31 08:47:49;;;;;;;2.60;1.20;;;;;;;38.66;33.38;99934.74;108492;1281;22005;-61
2023/07/31 08:50:16;;;;;;;4.10;1.60;;;;;;;38.72;32.70;99935.83;108445;1282;21983;-69
2023/07/31 08:52:42;;;;;;;2.80;1.30;;;;;;;38.62;31.28;99938.39;108527;1276;21989;-69
2023/07/31 08:55:07;;;;;;;2.30;1.10;;;;;;;38.43;30.28;99933.17;108198;1282;21987;-69
2023/07/31 08:57:37;;;;;;;4.20;1.20;;;;;;;38.33;31.72;99937.18;108405;1282;21997;-61
2023/07/31 09:00:05;;;;;;;5.80;1.30;;;;;;;38.40;32.13;99933.69;108524;1271;21993;-70
2023/07/31 09:02:59;;;;;;;4.00;1.20;;;;;;;38.53;31.90;99937.19;108485;1280;21983;-70
2023/07/31 09:05:24;;;;;;;2.40;1.20;;;;;;;38.60;31.42;99939.33;108452;1281;21984;-70
2023/07/31 09:07:50;;;;;;;2.70;1.30;;;;;;;38.58;31.31;99935.20;108480;1281;21979;-69
2023/07/31 09:10:15;;;;;;;2.70;1.40;;;;;;;38.60;31.40;99932.70;108228;1279;22023;-61
2023/07/31 09:12:41;;;;;;;2.50;1.10;;;;;;;38.56;30.88;99931.52;108448;1281;22215;-62
2023/07/31 09:15:08;;;;;;;2.70;1.40;;;;;;;38.53;31.52;99927.67;108487;1280;21983;-70
2023/07/31 09:17:36;;;;;;;3.00;1.20;;;;;;;38.61;31.22;99927.91;108482;1281;22767;-62
2023/07/31 09:20:21;;;;;;;1.80;1.10;;;;;;;38.70;31.74;99930.09;108493;1281;21983;-70
2023/07/31 09:22:49;;;;;;;4.20;1.30;;;;;;;38.87;31.72;99932.21;108497;1282;21987;-69
2023/07/31 09:25:19;;;;;;;3.20;1.30;;;;;;;38.93;31.38;99934.86;108453;1277;21984;-61
2023/07/31 09:27:56;;;;;;;3.00;1.40;;;;;;;38.98;31.14;99934.38;108390;1281;22000;-66
2023/07/31 09:30:22;;;;;;;1.80;1.10;;;;;;;39.03;31.20;99931.11;108350;1282;22209;-60
2023/07/31 09:32:49;;;;;;;2.60;1.40;;;;;;;39.19;31.30;99928.70;108440;1280;22029;-60
2023/07/31 09:35:28;;;;;;;2.10;1.10;;;;;;;39.49;31.14;99930.86;108554;1277;22017;-69
2023/07/31 09:38:09;;;;;;;3.10;1.40;;;;;;;39.65;29.60;99927.16;108385;1281;21983;-69
2023/07/31 09:40:39;;;;;;;2.30;1.40;;;;;;;39.50;29.44;99931.45;108390;1276;21993;-60
2023/07/31 09:43:06;;;;;;;2.60;1.40;;;;;;;39.26;29.37;99929.69;108463;1271;21996;-60
2023/07/31 09:45:36;;;;;;;3.30;1.60;;;;;;;39.09;29.57;99932.39;108358;1282;23055;-67
2023/07/31 09:48:02;;;;;;;2.60;1.30;;;;;;;39.02;29.30;99931.08;108408;1276;22038;-68
2023/07/31 09:50:28;;;;;;;4.70;1.30;;;;;;;39.22;30.30;99926.45;108559;1281;22164;-61
2023/07/31 09:52:53;;;;;;;2.10;1.30;;;;;;;39.74;30.26;99928.50;108130;1279;22038;-61
2023/07/31 09:55:19;;;;;;;4.00;1.40;;;;;;;40.14;29.69;99923.63;110422;1281;21924;-71
2023/07/31 09:57:46;;;;;;;3.20;1.30;;;;;;;40.40;28.48;99924.98;110449;1278;21910;-70
2023/07/31 10:00:12;;;;;;;3.00;1.30;;;;;;;40.52;29.13;99920.58;110476;1282;21909;-70
2023/07/31 10:02:38;;;;;;;16.30;2.80;;;;;;;40.58;28.45;99923.56;110435;1282;21930;-62
2023/07/31 10:05:05;;;;;;;5.70;1.70;;;;;;;40.55;28.46;99922.92;109765;1282;22005;-69
2023/07/31 10:07:31;;;;;;;12.20;2.30;;;;;;;40.57;28.73;99918.35;108705;1277;21976;-70
2023/07/31 10:10:00;;;;;;;11.00;2.00;;;;;;;40.70;29.18;99914.30;108653;1271;21994;-69
2023/07/31 10:12:28;;;;;;;2.20;1.30;;;;;;;40.94;28.49;99912.23;108395;1282;21984;-69
2023/07/31 10:14:54;;;;;;;4.70;1.30;;;;;;;41.14;28.54;99910.16;110451;1277;21933;-69
2023/07/31 10:17:20;;;;;;;2.30;1.70;;;;;;;41.25;28.51;99911.70;110470;1281;21901;-71
2023/07/31 10:19:45;;;;;;;2.40;1.40;;;;;;;41.20;28.38;99912.17;110060;1281;21994;-70
2023/07/31 10:22:11;;;;;;;2.90;1.70;;;;;;;40.94;27.71;99910.32;108225;1282;21994;-68
2023/07/31 10:24:37;;;;;;;2.30;1.50;;;;;;;40.53;27.77;99911.58;108216;1281;23052;-61
2023/07/31 10:27:03;;;;;;;4.50;1.80;;;;;;;40.26;28.40;99913.92;108230;1280;21984;-69
2023/07/31 10:29:29;;;;;;;2.50;1.40;;;;;;;40.25;28.52;99913.63;108265;1281;21999;-68
2023/07/31 10:31:57;;;;;;;2.50;1.30;;;;;;;40.37;28.53;99908.64;108236;1277;21986;-61
2023/07/31 10:34:22;;;;;;;2.10;1.40;;;;;;;40.42;28.11;99913.42;108619;1280;21992;-65
2023/07/31 10:36:49;;;;;;;4.90;1.50;;;;;;;40.37;27.84;99915.86;108478;1280;21985;-61
2023/07/31 10:39:38;;;;;;;3.40;1.70;;;;;;;40.22;27.69;99914.16;108395;1282;23744;-70
2023/07/31 10:42:13;;;;;;;4.30;1.70;;;;;;;40.10;28.04;99915.98;108775;1280;21997;-61
2023/07/31 10:44:43;;;;;;;2.80;1.70;;;;;;;39.97;27.42;99918.21;108519;1277;21989;-68
2023/07/31 10:47:09;;;;;;;4.20;2.90;;;;;;;39.69;28.34;99918.66;108542;1280;22027;-69
2023/07/31 10:49:35;;;;;;;7.30;4.20;;;;;;;39.41;29.33;99917.35;108397;1279;21982;-68
2023/07/31 10:52:03;;;;;;;15.70;10.10;;;;;;;39.08;30.09;99918.20;108622;1276;21967;-69
2023/07/31 10:54:29;;;;;;;8.60;3.40;;;;;;;38.69;30.42;99918.41;110160;1276;21989;-69
2023/07/31 10:56:54;;;;;;;10.30;2.30;;;;;;;38.28;30.79;99916.73;108337;1281;21987;-61
2023/07/31 10:59:28;;;;;;;3.20;2.20;;;;;;;37.91;31.23;99916.05;108104;1279;21991;-61
2023/07/31 11:01:58;;;;;;;3.80;2.30;;;;;;;37.60;31.59;99909.92;108386;1280;21978;-69
2023/07/31 11:04:24;;;;;;;;;;;;;;;37.38;31.90;99908.30;108540;1280;22269;-67
2023/07/31 11:07:00;;;;;;;5.80;2.40;;;;;;;37.13;32.12;99911.38;109680;1280;21983;-61
2023/07/31 11:09:30;;;;;;;4.70;2.90;;;;;;;36.96;32.35;99913.52;108484;1280;21985;-60
2023/07/31 11:11:55;;;;;;;4.10;2.50;;;;;;;36.81;32.48;99908.09;108510;1282;21986;-61
2023/07/31 11:14:21;;;;;;;5.10;2.30;;;;;;;36.57;32.65;99905.33;108480;1276;21986;-68
2023/07/31 11:16:49;;;;;;;4.60;2.20;;;;;;;36.29;32.92;99912.03;108446;1277;23047;-68
2023/07/31 11:19:24;;;;;;;4.30;2.10;;;;;;;36.01;33.13;99916.06;108442;1282;22243;-70
2023/07/31 11:21:53;;;;;;;3.80;2.30;;;;;;;35.69;33.47;99921.06;108307;1281;21991;-61